createdAt,value
2018-08-31T00:02:14.892Z,99331.67
2018-08-31T00:04:54.491Z,99331.67
2018-08-31T00:07:36.372Z,99334.30
2018-08-31T00:10:20.299Z,99332.10
2018-08-31T00:12:48.589Z,99335.98
2018-08-31T00:15:16.990Z,99331.38
2018-08-31T00:17:45.330Z,99334.22
2018-08-31T00:20:14.485Z,99334.49
2018-08-31T00:22:42.806Z,99328.72
2018-08-31T00:26:22.857Z,99326.08
2018-08-31T00:29:42.473Z,99326.47
2018-08-31T00:33:28.188Z,99325.66
2018-08-31T00:36:39.821Z,99325.48
2018-08-31T00:39:19.751Z,99323.15
2018-08-31T00:41:59.657Z,99321.36
2018-08-31T00:45:39.445Z,99325.17
2018-08-31T00:48:08.142Z,99319.53
2018-08-31T00:50:36.832Z,99312.84
2018-08-31T00:53:05.902Z,99313.83
2018-08-31T00:55:34.546Z,99323.78
2018-08-31T00:58:03.022Z,99313.80
2018-08-31T01:00:31.473Z,99316.69
2018-08-31T01:02:59.838Z,99321.48
2018-08-31T01:05:30.532Z,99317.95
2018-08-31T01:07:58.918Z,99317.67
2018-08-31T01:10:27.318Z,99313.47
2018-08-31T01:12:56.307Z,99314.15
2018-08-31T01:15:24.729Z,99312.50
2018-08-31T01:17:53.200Z,99315.73
2018-08-31T01:20:21.510Z,99311.16
2018-08-31T01:22:49.958Z,99319.67
2018-08-31T01:25:18.296Z,99312.98
2018-08-31T01:27:46.636Z,99312.84
2018-08-31T01:30:15.084Z,99309.67
2018-08-31T01:32:43.558Z,99311.58
2018-08-31T01:35:11.939Z,99314.75
2018-08-31T01:37:40.316Z,99314.42
2018-08-31T01:40:08.740Z,99311.30
2018-08-31T01:42:37.088Z,99311.26
2018-08-31T01:45:05.680Z,99316.30
2018-08-31T01:47:34.326Z,99320.30
2018-08-31T01:50:09.481Z,99312.98
2018-08-31T01:52:37.785Z,99313.40
2018-08-31T01:55:06.436Z,99312.00
2018-08-31T01:57:34.883Z,99316.02
2018-08-31T02:00:03.412Z,99313.36
2018-08-31T02:02:31.822Z,99314.62
2018-08-31T02:05:00.170Z,99310.59
2018-08-31T02:07:28.476Z,99306.16
2018-08-31T02:09:56.956Z,99313.64
2018-08-31T02:12:25.344Z,99317.66
2018-08-31T02:14:53.820Z,99316.45
2018-08-31T02:17:28.878Z,99318.20
2018-08-31T02:19:57.195Z,99322.07
2018-08-31T02:22:25.633Z,99324.47
2018-08-31T02:24:54.055Z,99328.98
2018-08-31T02:27:22.475Z,99326.30
2018-08-31T02:29:50.847Z,99322.05
2018-08-31T02:32:19.264Z,99330.43
2018-08-31T02:34:47.580Z,99324.25
2018-08-31T02:37:15.987Z,99326.77
2018-08-31T02:39:47.350Z,99321.31
2018-08-31T02:42:15.724Z,99325.44
2018-08-31T02:44:45.473Z,99327.88
2018-08-31T02:47:13.925Z,99325.10
2018-08-31T02:49:42.285Z,99330.15
2018-08-31T02:52:10.604Z,99318.91
2018-08-31T02:54:38.998Z,99314.60
2018-08-31T02:57:08.126Z,99320.52
2018-08-31T02:59:36.536Z,99318.82
2018-08-31T03:02:05.016Z,99321.63
2018-08-31T03:04:33.440Z,99322.77
2018-08-31T03:07:01.858Z,99320.84
2018-08-31T03:09:30.260Z,99321.28
2018-08-31T03:11:58.718Z,99320.92
2018-08-31T03:14:27.059Z,99325.02
2018-08-31T03:16:55.426Z,99321.50
2018-08-31T03:19:23.791Z,99315.59
2018-08-31T03:21:52.255Z,99315.86
2018-08-31T03:24:20.582Z,99314.67
2018-08-31T03:26:48.861Z,99314.73
2018-08-31T03:29:17.229Z,99317.03
2018-08-31T03:31:48.999Z,99314.41
2018-08-31T03:34:17.389Z,99313.13
2018-08-31T03:36:49.993Z,99314.47
2018-08-31T03:39:18.354Z,99309.16
2018-08-31T03:41:46.958Z,99308.45
2018-08-31T03:44:15.342Z,99301.72
2018-08-31T03:46:48.075Z,99312.50
2018-08-31T03:49:16.532Z,99307.52
2018-08-31T03:51:44.834Z,99306.83
2018-08-31T03:54:13.108Z,99305.77
2018-08-31T03:56:41.450Z,99305.70
2018-08-31T03:59:09.719Z,99301.00
2018-08-31T04:01:38.019Z,99312.30
2018-08-31T04:04:06.345Z,99304.67
2018-08-31T04:06:34.721Z,99310.89
2018-08-31T04:09:03.145Z,99314.63
2018-08-31T04:11:31.442Z,99316.68
2018-08-31T04:13:59.841Z,99316.40
2018-08-31T04:16:28.337Z,99322.63
2018-08-31T04:18:56.697Z,99313.23
2018-08-31T04:21:25.008Z,99312.16
2018-08-31T04:23:53.277Z,99316.04
2018-08-31T04:26:23.395Z,99314.96
2018-08-31T04:28:54.781Z,99312.98
2018-08-31T04:31:24.128Z,99315.87
2018-08-31T04:33:52.486Z,99319.94
2018-08-31T04:36:20.881Z,99325.19
2018-08-31T04:38:49.125Z,99325.86
2018-08-31T04:41:17.598Z,99330.23
2018-08-31T04:43:45.885Z,99323.05
2018-08-31T04:46:14.247Z,99330.70
2018-08-31T04:48:42.619Z,99334.18
2018-08-31T04:51:10.921Z,99331.83
2018-08-31T04:53:39.359Z,99336.20
2018-08-31T04:56:08.326Z,99334.50
2018-08-31T04:58:36.663Z,99334.86
2018-08-31T05:01:10.973Z,99335.58
2018-08-31T05:03:39.399Z,99343.41
2018-08-31T05:06:07.643Z,99344.38
2018-08-31T05:08:35.940Z,99350.45
2018-08-31T05:11:04.345Z,99350.23
2018-08-31T05:13:32.666Z,99344.96
2018-08-31T05:16:01.436Z,99349.12
2018-08-31T05:18:29.873Z,99343.81
2018-08-31T05:20:58.137Z,99342.25
2018-08-31T05:23:26.400Z,99341.41
2018-08-31T05:25:54.703Z,99341.17
2018-08-31T05:28:24.000Z,99334.09
2018-08-31T05:31:14.336Z,99342.12
2018-08-31T05:33:42.710Z,99335.72
2018-08-31T05:36:12.048Z,99343.69
2018-08-31T05:38:41.390Z,99344.36
2018-08-31T05:41:09.624Z,99353.87
2018-08-31T05:43:37.919Z,99347.22
2018-08-31T05:46:06.414Z,99348.06
2018-08-31T05:48:34.709Z,99347.91
2018-08-31T05:51:09.432Z,99350.21
2018-08-31T05:53:37.792Z,99353.43
2018-08-31T05:56:07.162Z,99355.05
2018-08-31T05:58:35.460Z,99357.62
2018-08-31T06:01:03.690Z,99349.95
2018-08-31T06:03:32.541Z,99358.13
2018-08-31T06:06:02.041Z,99357.34
2018-08-31T06:08:30.277Z,99359.28
2018-08-31T06:10:58.537Z,99365.80
2018-08-31T06:13:26.785Z,99360.20
2018-08-31T06:15:55.149Z,99369.26
2018-08-31T06:18:23.423Z,99374.25
2018-08-31T06:20:51.730Z,99367.50
2018-08-31T06:23:19.947Z,99379.95
2018-08-31T06:25:48.197Z,99383.56
2018-08-31T06:28:16.498Z,99372.92
2018-08-31T06:30:44.782Z,99370.88
2018-08-31T06:33:13.017Z,99370.73
2018-08-31T06:35:41.286Z,99379.16
2018-08-31T06:38:09.580Z,99382.41
2018-08-31T06:40:37.914Z,99379.38
2018-08-31T06:43:06.078Z,99379.21
2018-08-31T06:45:34.366Z,99383.04
2018-08-31T06:48:02.621Z,99380.92
2018-08-31T06:50:31.314Z,99380.98
2018-08-31T06:53:05.901Z,99382.94
2018-08-31T06:55:35.275Z,99388.24
2018-08-31T06:58:05.535Z,99384.50
2018-08-31T07:00:35.337Z,99384.70
2018-08-31T07:03:11.915Z,99382.57
2018-08-31T07:05:57.687Z,99383.37
2018-08-31T07:11:20.715Z,99386.55
2018-08-31T07:16:44.116Z,99394.94
2018-08-31T07:19:13.862Z,99400.84
2018-08-31T07:21:51.362Z,99396.21
2018-08-31T07:24:32.326Z,99402.70
2018-08-31T07:31:59.595Z,99401.09
2018-08-31T07:34:39.236Z,99406.17
2018-08-31T07:50:51.907Z,99408.61
2018-08-31T07:53:21.677Z,99404.95
2018-08-31T07:55:50.927Z,99407.52
2018-08-31T07:58:20.288Z,99413.09
2018-08-31T08:00:50.430Z,99410.06
2018-08-31T08:03:19.556Z,99408.72
2018-08-31T08:05:48.411Z,99420.16
2018-08-31T08:08:17.604Z,99413.17
2018-08-31T08:10:47.106Z,99424.54
2018-08-31T08:13:16.225Z,99425.00
2018-08-31T08:15:45.562Z,99428.38
2018-08-31T08:18:14.482Z,99431.22
2018-08-31T08:20:43.571Z,99431.88
2018-08-31T08:23:12.939Z,99431.98
2018-08-31T08:25:42.023Z,99430.91
2018-08-31T08:28:10.920Z,99431.48
2018-08-31T08:30:39.825Z,99432.76
2018-08-31T08:33:09.620Z,99425.95
2018-08-31T08:35:39.308Z,99419.83
2018-08-31T08:38:08.613Z,99422.56
2018-08-31T08:40:37.442Z,99421.70
2018-08-31T08:43:06.654Z,99418.92
2018-08-31T08:45:36.395Z,99429.93
2018-08-31T08:48:05.335Z,99425.45
2018-08-31T08:50:35.574Z,99421.73
2018-08-31T08:53:05.158Z,99434.50
2018-08-31T08:55:34.230Z,99433.55
2018-08-31T08:58:03.275Z,99434.02
2018-08-31T09:00:32.318Z,99433.02
2018-08-31T09:03:01.637Z,99435.52
2018-08-31T09:05:30.766Z,99433.26
2018-08-31T09:08:01.158Z,99428.45
2018-08-31T09:10:31.678Z,99429.77
2018-08-31T09:13:03.265Z,99432.36
2018-08-31T09:15:35.371Z,99431.41
2018-08-31T09:18:06.831Z,99431.91
2018-08-31T09:20:37.898Z,99434.82
2018-08-31T09:23:07.882Z,99432.96
2018-08-31T09:25:38.263Z,99427.90
2018-08-31T09:28:09.335Z,99424.10
2018-08-31T09:30:43.558Z,99416.67
2018-08-31T09:33:14.285Z,99423.05
2018-08-31T09:35:43.900Z,99422.47
2018-08-31T09:38:14.249Z,99413.42
2018-08-31T09:40:43.768Z,99414.11
2018-08-31T09:43:13.783Z,99409.39
2018-08-31T09:45:44.292Z,99410.11
2018-08-31T09:48:14.637Z,99402.64
2018-08-31T09:50:44.607Z,99406.41
2018-08-31T09:53:14.656Z,99397.08
2018-08-31T09:55:44.922Z,99388.05
2018-08-31T09:58:15.067Z,99397.97
2018-08-31T10:00:50.037Z,99409.86
2018-08-31T10:03:26.278Z,99407.63
2018-08-31T10:05:57.218Z,99401.20
2018-08-31T10:08:28.502Z,99389.90
2018-08-31T10:10:58.813Z,99392.04
2018-08-31T10:13:31.826Z,99400.42
2018-08-31T10:16:01.812Z,99396.22
2018-08-31T10:18:32.062Z,99393.29
2018-08-31T10:21:00.491Z,99389.80
2018-08-31T10:23:28.837Z,99388.17
2018-08-31T10:25:57.105Z,99383.34
2018-08-31T10:28:25.479Z,99384.97
2018-08-31T10:30:53.771Z,99381.59
2018-08-31T10:33:22.137Z,99385.26
2018-08-31T10:35:50.459Z,99380.08
2018-08-31T10:38:18.899Z,99369.16
2018-08-31T10:40:47.296Z,99369.19
2018-08-31T10:43:15.607Z,99373.63
2018-08-31T10:45:43.907Z,99375.97
2018-08-31T10:48:12.191Z,99377.17
2018-08-31T10:50:40.467Z,99377.48
2018-08-31T10:53:08.777Z,99376.98
2018-08-31T10:55:37.058Z,99373.59
2018-08-31T10:58:05.386Z,99373.50
2018-08-31T11:00:33.671Z,99376.66
2018-08-31T11:03:02.027Z,99368.48
2018-08-31T11:05:30.330Z,99369.21
2018-08-31T11:07:58.682Z,99366.42
2018-08-31T11:10:27.018Z,99360.77
2018-08-31T11:12:55.584Z,99376.15
2018-08-31T11:15:24.032Z,99365.11
2018-08-31T11:17:52.567Z,99374.89
2018-08-31T11:20:21.084Z,99365.25
2018-08-31T11:22:49.429Z,99368.14
2018-08-31T11:25:17.867Z,99368.45
2018-08-31T11:27:46.223Z,99365.07
2018-08-31T11:30:14.565Z,99368.78
2018-08-31T11:32:42.944Z,99368.78
2018-08-31T11:35:11.362Z,99370.69
2018-08-31T11:37:39.707Z,99370.08
2018-08-31T11:40:08.186Z,99362.95
2018-08-31T11:42:36.622Z,99359.30
2018-08-31T11:45:05.134Z,99359.94
2018-08-31T11:47:33.554Z,99355.09
2018-08-31T11:50:01.924Z,99361.70
2018-08-31T11:52:30.384Z,99354.32
2018-08-31T11:54:58.728Z,99354.12
2018-08-31T11:57:27.090Z,99347.58
2018-08-31T11:59:55.424Z,99353.03
2018-08-31T12:02:23.735Z,99353.02
2018-08-31T12:04:52.061Z,99349.64
2018-08-31T12:07:20.474Z,99349.98
2018-08-31T12:09:48.832Z,99341.88
2018-08-31T12:12:17.162Z,99337.47
2018-08-31T12:14:45.555Z,99342.34
2018-08-31T12:17:13.853Z,99339.16
2018-08-31T12:19:42.296Z,99339.82
2018-08-31T12:22:10.604Z,99338.39
2018-08-31T12:24:39.007Z,99339.80
2018-08-31T12:27:07.334Z,99333.92
2018-08-31T12:29:35.658Z,99338.25
2018-08-31T12:32:04.206Z,99337.45
2018-08-31T12:34:32.565Z,99332.23
2018-08-31T12:37:02.027Z,99326.00
2018-08-31T12:39:30.424Z,99325.31
2018-08-31T12:41:58.818Z,99323.20
2018-08-31T12:44:27.386Z,99328.23
2018-08-31T12:46:55.914Z,99326.16
2018-08-31T12:49:24.402Z,99325.89
2018-08-31T12:51:52.828Z,99322.55
2018-08-31T12:54:21.264Z,99316.55
2018-08-31T12:56:49.791Z,99322.13
2018-08-31T12:59:18.231Z,99319.70
2018-08-31T13:01:46.715Z,99322.02
2018-08-31T13:04:15.197Z,99324.25
2018-08-31T13:06:50.149Z,99319.50
2018-08-31T13:09:18.666Z,99309.88
2018-08-31T13:11:47.252Z,99306.13
2018-08-31T13:14:15.573Z,99301.98
2018-08-31T13:16:44.039Z,99307.32
2018-08-31T13:19:12.468Z,99303.52
2018-08-31T13:21:40.952Z,99310.66
2018-08-31T13:24:10.879Z,99301.92
2018-08-31T13:26:39.232Z,99310.45
2018-08-31T13:29:08.098Z,99308.63
2018-08-31T13:31:36.615Z,99307.16
2018-08-31T13:34:05.054Z,99309.70
2018-08-31T13:36:33.509Z,99302.28
2018-08-31T13:39:02.720Z,99310.02
2018-08-31T13:41:31.535Z,99304.10
2018-08-31T13:43:59.968Z,99311.15
2018-08-31T13:46:28.422Z,99305.83
2018-08-31T13:48:56.779Z,99298.92
2018-08-31T13:51:25.274Z,99306.70
2018-08-31T13:53:54.440Z,99306.94
2018-08-31T13:56:22.849Z,99315.39
2018-08-31T13:58:51.219Z,99312.53
2018-08-31T14:01:19.596Z,99307.55
2018-08-31T14:03:48.202Z,99311.88
2018-08-31T14:06:16.632Z,99322.77
2018-08-31T14:08:45.370Z,99320.06
2018-08-31T14:11:13.945Z,99320.75
2018-08-31T14:13:42.935Z,99327.36
2018-08-31T14:16:13.594Z,99328.79
2018-08-31T14:18:42.007Z,99331.32
2018-08-31T14:21:10.403Z,99326.60
2018-08-31T14:23:38.829Z,99325.47
2018-08-31T14:26:07.175Z,99328.25
2018-08-31T14:28:35.945Z,99328.51
2018-08-31T14:31:04.415Z,99328.97
2018-08-31T14:33:33.127Z,99325.03
2018-08-31T14:36:01.516Z,99325.83
2018-08-31T14:38:30.771Z,99330.59
2018-08-31T14:40:59.327Z,99329.15
2018-08-31T14:43:28.075Z,99328.45
2018-08-31T14:45:56.642Z,99320.67
2018-08-31T14:48:25.292Z,99313.83
2018-08-31T14:50:53.883Z,99312.71
2018-08-31T14:53:22.465Z,99320.22
2018-08-31T14:55:51.102Z,99318.97
2018-08-31T14:58:20.448Z,99309.64
2018-08-31T15:00:49.229Z,99314.14
2018-08-31T15:03:18.399Z,99314.20
2018-08-31T15:05:47.234Z,99312.59
2018-08-31T15:08:16.981Z,99312.20
2018-08-31T15:10:45.518Z,99310.16
2018-08-31T15:13:13.977Z,99315.36
2018-08-31T15:15:43.394Z,99313.16
2018-08-31T15:18:11.938Z,99314.63
2018-08-31T15:20:40.557Z,99320.47
2018-08-31T15:23:09.352Z,99320.13
2018-08-31T15:25:37.954Z,99318.05
2018-08-31T15:28:06.393Z,99326.83
2018-08-31T15:30:35.108Z,99315.89
2018-08-31T15:33:03.804Z,99324.19
2018-08-31T15:35:32.376Z,99322.26
2018-08-31T15:38:00.789Z,99321.59
2018-08-31T15:40:29.390Z,99315.65
2018-08-31T15:42:57.870Z,99318.08
2018-08-31T15:45:26.634Z,99315.39
2018-08-31T15:47:55.447Z,99322.17
2018-08-31T15:50:24.124Z,99321.53
2018-08-31T15:52:53.966Z,99326.25
2018-08-31T15:55:23.091Z,99326.48
2018-08-31T15:57:51.610Z,99332.16
2018-08-31T16:00:22.182Z,99332.36
2018-08-31T16:02:50.726Z,99328.97
2018-08-31T16:05:19.162Z,99334.27
2018-08-31T16:07:48.437Z,99323.98
2018-08-31T16:10:17.298Z,99330.68
2018-08-31T16:12:45.717Z,99329.36
2018-08-31T16:15:14.107Z,99327.29
2018-08-31T16:17:42.607Z,99325.80
2018-08-31T16:20:11.067Z,99331.53
2018-08-31T16:22:39.416Z,99323.88
2018-08-31T16:25:07.887Z,99319.66
2018-08-31T16:27:36.242Z,99325.58
2018-08-31T16:30:05.232Z,99319.58
2018-08-31T16:32:33.570Z,99322.88
2018-08-31T16:35:01.955Z,99320.31
2018-08-31T16:37:30.601Z,99316.44
2018-08-31T16:39:59.011Z,99327.29
2018-08-31T16:42:27.324Z,99326.42
2018-08-31T16:44:55.977Z,99331.61
2018-08-31T16:47:24.790Z,99326.06
2018-08-31T16:49:53.122Z,99327.97
2018-08-31T16:52:21.444Z,99336.41
2018-08-31T16:54:53.108Z,99329.36
2018-08-31T16:57:21.482Z,99335.78
2018-08-31T16:59:49.963Z,99337.99
2018-08-31T17:02:18.405Z,99337.48
2018-08-31T17:04:46.795Z,99340.52
2018-08-31T17:07:15.303Z,99342.19
2018-08-31T17:09:43.630Z,99344.05
2018-08-31T17:12:12.007Z,99347.80
2018-08-31T17:14:40.378Z,99352.02
2018-08-31T17:17:08.731Z,99349.31
2018-08-31T17:19:37.219Z,99347.63
2018-08-31T17:22:05.967Z,99353.20
2018-08-31T17:24:34.417Z,99353.03
2018-08-31T17:27:08.095Z,99353.69
2018-08-31T17:29:40.613Z,99355.89
2018-08-31T17:32:14.533Z,99360.56
2018-08-31T17:34:48.155Z,99362.41
2018-08-31T17:37:21.744Z,99367.44
2018-08-31T17:39:50.088Z,99365.08
2018-08-31T17:42:18.445Z,99370.70
2018-08-31T17:44:46.803Z,99368.35
2018-08-31T17:47:15.351Z,99369.70
2018-08-31T17:49:43.753Z,99370.02
2018-08-31T17:52:12.179Z,99374.73
2018-08-31T17:54:40.568Z,99378.56
2018-08-31T17:57:08.937Z,99382.89
2018-08-31T17:59:37.313Z,99381.05
2018-08-31T18:02:05.743Z,99377.83
2018-08-31T18:04:34.395Z,99378.49
2018-08-31T18:07:02.784Z,99388.92
2018-08-31T18:09:31.357Z,99387.99
2018-08-31T18:11:59.961Z,99390.02
2018-08-31T18:14:28.911Z,99391.19
2018-08-31T18:16:57.253Z,99393.53
2018-08-31T18:19:25.940Z,99400.73
2018-08-31T18:21:54.373Z,99397.80
2018-08-31T18:24:23.650Z,99405.84
2018-08-31T18:26:52.230Z,99404.08
2018-08-31T18:29:20.800Z,99401.36
2018-08-31T18:31:49.146Z,99409.41
2018-08-31T18:34:17.562Z,99408.28
2018-08-31T18:36:45.866Z,99407.82
2018-08-31T18:39:14.294Z,99413.64
2018-08-31T18:41:42.656Z,99415.55
2018-08-31T18:44:11.095Z,99415.33
2018-08-31T18:46:39.687Z,99414.45
2018-08-31T18:49:07.982Z,99424.65
2018-08-31T18:51:36.511Z,99421.42
2018-08-31T18:54:04.833Z,99426.92
2018-08-31T18:56:33.197Z,99420.91
2018-08-31T18:59:01.730Z,99429.28
2018-08-31T19:01:30.024Z,99425.84
2018-08-31T19:03:58.575Z,99429.41
2018-08-31T19:06:26.894Z,99432.26
2018-08-31T19:08:55.226Z,99438.83
2018-08-31T19:11:23.621Z,99439.06
2018-08-31T19:13:52.008Z,99445.86
2018-08-31T19:16:20.333Z,99442.03
2018-08-31T19:18:48.728Z,99448.28
2018-08-31T19:21:17.107Z,99456.14
2018-08-31T19:23:45.567Z,99452.80
2018-08-31T19:26:14.343Z,99449.92
2018-08-31T19:28:42.662Z,99457.02
2018-08-31T19:31:11.020Z,99461.72
2018-08-31T19:33:39.511Z,99455.62
2018-08-31T19:36:08.196Z,99455.09
2018-08-31T19:38:36.517Z,99459.19
2018-08-31T19:41:04.925Z,99460.48
2018-08-31T19:43:33.204Z,99460.22
2018-08-31T19:46:01.810Z,99462.05
2018-08-31T19:48:30.140Z,99459.71
2018-08-31T19:50:58.481Z,99465.00
2018-08-31T19:53:26.930Z,99468.92
2018-08-31T19:55:55.550Z,99466.58
2018-08-31T19:58:24.013Z,99468.22
2018-08-31T20:00:52.337Z,99470.00
2018-08-31T20:03:20.834Z,99470.75
2018-08-31T20:05:49.192Z,99472.14
2018-08-31T20:08:17.889Z,99476.80
2018-08-31T20:10:46.209Z,99475.05
2018-08-31T20:13:14.577Z,99473.45
2018-08-31T20:15:42.905Z,99479.90
2018-08-31T20:18:11.430Z,99478.44
2018-08-31T20:20:40.063Z,99480.13
2018-08-31T20:23:08.387Z,99480.72
2018-08-31T20:25:36.694Z,99481.12
2018-08-31T20:28:05.106Z,99479.38
2018-08-31T20:30:33.590Z,99485.81
2018-08-31T20:33:01.918Z,99485.44
2018-08-31T20:35:30.250Z,99485.48
2018-08-31T20:37:58.594Z,99486.64
2018-08-31T20:40:27.104Z,99490.45
2018-08-31T20:42:55.621Z,99496.55
2018-08-31T20:45:23.974Z,99499.47
2018-08-31T20:47:52.491Z,99510.17
2018-08-31T20:50:21.116Z,99505.48
2018-08-31T20:52:49.707Z,99510.97
2018-08-31T20:55:18.402Z,99517.64
2018-08-31T20:57:47.016Z,99515.06
2018-08-31T21:00:32.369Z,99520.09
2018-08-31T21:03:01.719Z,99524.21
2018-08-31T21:05:38.765Z,99522.75
2018-08-31T21:08:07.048Z,99521.77
2018-08-31T21:10:35.396Z,99524.50
2018-08-31T21:13:03.686Z,99525.41
2018-08-31T21:15:32.234Z,99525.64
2018-08-31T21:18:00.564Z,99524.01
2018-08-31T21:20:28.875Z,99525.73
2018-08-31T21:22:57.195Z,99527.06
2018-08-31T21:25:25.538Z,99533.11
2018-08-31T21:27:53.939Z,99536.63
2018-08-31T21:30:22.335Z,99536.52
2018-08-31T21:32:50.772Z,99535.67
2018-08-31T21:35:19.090Z,99541.39
2018-08-31T21:37:47.382Z,99544.73
2018-08-31T21:40:15.689Z,99543.93
2018-08-31T21:42:44.045Z,99553.85
2018-08-31T21:45:12.360Z,99543.78
2018-08-31T21:47:40.670Z,99548.99
2018-08-31T21:50:09.114Z,99549.70
2018-08-31T21:52:37.438Z,99557.52
2018-08-31T21:55:06.276Z,99555.77
2018-08-31T21:57:34.639Z,99552.95
2018-08-31T22:00:02.986Z,99552.30
2018-08-31T22:02:31.323Z,99552.59
2018-08-31T22:04:59.646Z,99547.08
2018-08-31T22:07:28.044Z,99551.37
2018-08-31T22:09:56.373Z,99543.11
2018-08-31T22:12:24.719Z,99551.28
2018-08-31T22:14:53.060Z,99548.83
2018-08-31T22:17:21.376Z,99549.44
2018-08-31T22:19:49.772Z,99552.55
2018-08-31T22:22:18.154Z,99548.88
2018-08-31T22:24:46.557Z,99547.06
2018-08-31T22:27:14.905Z,99551.11
2018-08-31T22:29:43.257Z,99544.75
2018-08-31T22:32:11.619Z,99545.23
2018-08-31T22:34:39.932Z,99548.81
2018-08-31T22:37:08.282Z,99553.05
2018-08-31T22:39:36.591Z,99551.53
2018-08-31T22:42:04.989Z,99552.01
2018-08-31T22:44:35.788Z,99549.66
2018-08-31T22:47:04.858Z,99541.93
2018-08-31T22:49:33.154Z,99545.63
2018-08-31T22:52:01.580Z,99539.33
2018-08-31T22:54:29.914Z,99538.77
2018-08-31T22:56:58.281Z,99541.05
2018-08-31T22:59:26.763Z,99539.23
2018-08-31T23:01:55.099Z,99547.22
2018-08-31T23:04:23.437Z,99544.89
2018-08-31T23:06:51.754Z,99542.11
2018-08-31T23:09:20.046Z,99533.61
2018-08-31T23:11:48.388Z,99539.38
2018-08-31T23:14:16.712Z,99538.31
2018-08-31T23:16:45.033Z,99545.23
2018-08-31T23:19:13.318Z,99537.66
2018-08-31T23:21:41.641Z,99537.58
2018-08-31T23:24:09.919Z,99537.66
2018-08-31T23:26:38.266Z,99546.78
2018-08-31T23:29:06.618Z,99544.58
2018-08-31T23:31:35.010Z,99545.09
2018-08-31T23:34:03.383Z,99549.33
2018-08-31T23:36:31.676Z,99552.47
2018-08-31T23:39:00.008Z,99546.45
2018-08-31T23:41:28.367Z,99546.39
2018-08-31T23:43:56.671Z,99546.34
2018-08-31T23:46:24.960Z,99545.11
2018-08-31T23:48:53.355Z,99550.11
2018-08-31T23:51:21.677Z,99552.82
2018-08-31T23:53:50.034Z,99552.14
2018-08-31T23:56:18.443Z,99552.18
2018-08-31T23:58:46.792Z,99558.26
